createdAt,value
2019-05-25T00:01:31.601Z,89.00
2019-05-25T00:04:01.433Z,90.30
2019-05-25T00:06:31.197Z,90.60
2019-05-25T00:09:00.759Z,90.70
2019-05-25T00:11:30.529Z,90.90
2019-05-25T00:14:03.719Z,92.20
2019-05-25T00:16:33.861Z,92.50
2019-05-25T00:19:03.386Z,92.50
2019-05-25T00:21:34.813Z,93.30
2019-05-25T00:24:12.273Z,93.80
2019-05-25T00:26:36.444Z,94.20
2019-05-25T00:29:06.329Z,95.20
2019-05-25T00:31:36.321Z,95.00
2019-05-25T00:34:06.415Z,95.20
2019-05-25T00:36:36.363Z,96.20
2019-05-25T00:39:08.320Z,96.10
2019-05-25T00:41:38.146Z,97.00
2019-05-25T00:44:07.957Z,99.20
2019-05-25T00:46:37.516Z,99.90
2019-05-25T00:49:07.603Z,99.90
2019-05-25T00:51:37.073Z,99.90
2019-05-25T00:54:06.789Z,99.90
2019-05-25T00:56:36.909Z,99.90
2019-05-25T00:59:06.642Z,99.90
2019-05-25T01:01:36.421Z,99.90
2019-05-25T01:04:06.594Z,99.90
2019-05-25T01:06:36.157Z,99.90
2019-05-25T01:09:07.634Z,99.90
2019-05-25T01:11:37.486Z,99.90
2019-05-25T01:14:07.600Z,99.90
2019-05-25T01:16:37.432Z,99.90
2019-05-25T01:19:07.330Z,99.90
2019-05-25T01:21:36.849Z,99.90
2019-05-25T01:24:06.576Z,99.90
2019-05-25T01:26:36.441Z,99.90
2019-05-25T01:29:06.101Z,99.90
2019-05-25T01:31:35.892Z,99.90
2019-05-25T01:34:06.136Z,99.90
2019-05-25T01:36:35.961Z,99.90
2019-05-25T01:39:06.902Z,99.90
2019-05-25T01:41:36.759Z,99.90
2019-05-25T01:44:06.333Z,99.90
2019-05-25T01:46:35.900Z,99.90
2019-05-25T01:49:05.434Z,99.90
2019-05-25T01:51:35.037Z,99.90
2019-05-25T01:54:04.825Z,99.90
2019-05-25T01:56:34.783Z,99.90
2019-05-25T01:59:04.288Z,99.90
2019-05-25T02:01:33.869Z,99.90
2019-05-25T02:04:03.842Z,99.90
2019-05-25T02:06:33.587Z,99.90
2019-05-25T02:09:03.995Z,99.90
2019-05-25T02:11:34.303Z,99.90
2019-05-25T02:14:04.091Z,99.90
2019-05-25T02:16:33.698Z,99.90
2019-05-25T02:19:03.491Z,99.90
2019-05-25T02:21:32.996Z,99.90
2019-05-25T02:24:10.855Z,99.90
2019-05-25T02:26:40.737Z,99.90
2019-05-25T02:29:10.719Z,99.90
2019-05-25T02:31:40.486Z,99.90
2019-05-25T02:34:10.556Z,99.90
2019-05-25T02:36:41.353Z,99.90
2019-05-25T02:39:11.104Z,99.90
2019-05-25T02:41:40.599Z,99.90
2019-05-25T02:44:10.005Z,99.90
2019-05-25T02:46:39.647Z,99.90
2019-05-25T02:49:09.384Z,99.90
2019-05-25T02:51:39.094Z,99.90
2019-05-25T02:54:08.789Z,99.90
2019-05-25T02:56:38.410Z,99.90
2019-05-25T02:59:07.926Z,99.90
2019-05-25T03:01:37.464Z,99.90
2019-05-25T03:04:07.049Z,99.90
2019-05-25T03:06:37.234Z,99.90
2019-05-25T03:09:07.888Z,99.90
2019-05-25T03:11:38.092Z,99.90
2019-05-25T03:14:07.516Z,99.90
2019-05-25T03:16:37.454Z,99.90
2019-05-25T03:19:07.110Z,99.90
2019-05-25T03:21:36.999Z,99.90
2019-05-25T03:24:06.684Z,99.90
2019-05-25T03:26:36.426Z,99.90
2019-05-25T03:29:05.905Z,99.90
2019-05-25T03:31:35.474Z,99.90
2019-05-25T03:34:05.265Z,99.90
2019-05-25T03:36:34.753Z,99.90
2019-05-25T03:39:05.994Z,99.90
2019-05-25T03:41:35.570Z,99.90
2019-05-25T03:44:04.933Z,99.90
2019-05-25T03:46:34.259Z,99.90
2019-05-25T03:49:03.605Z,99.90
2019-05-25T03:51:32.955Z,99.90
2019-05-25T03:54:02.391Z,99.90
2019-05-25T03:56:31.900Z,99.90
2019-05-25T03:59:01.328Z,99.90
2019-05-25T04:01:30.826Z,99.90
2019-05-25T04:04:00.219Z,99.90
2019-05-25T04:06:29.624Z,99.90
2019-05-25T04:08:59.191Z,99.90
2019-05-25T04:11:28.566Z,99.90
2019-05-25T04:13:57.981Z,99.90
2019-05-25T04:16:27.773Z,99.90
2019-05-25T04:18:57.526Z,99.90
2019-05-25T04:21:26.964Z,99.90
2019-05-25T04:23:57.306Z,99.90
2019-05-25T04:26:27.601Z,99.90
2019-05-25T04:28:57.574Z,99.90
2019-05-25T04:31:28.286Z,99.90
2019-05-25T04:33:57.663Z,99.90
2019-05-25T04:36:27.581Z,99.90
2019-05-25T04:38:57.404Z,99.90
2019-05-25T04:41:28.808Z,99.90
2019-05-25T04:43:58.739Z,99.90
2019-05-25T04:46:30.734Z,99.90
2019-05-25T04:49:00.672Z,99.90
2019-05-25T04:51:30.316Z,99.90
2019-05-25T04:54:00.085Z,99.90
2019-05-25T04:56:39.519Z,99.90
2019-05-25T04:59:01.595Z,99.90
2019-05-25T05:01:31.422Z,99.90
2019-05-25T05:04:01.079Z,99.90
2019-05-25T05:06:31.004Z,99.90
2019-05-25T05:09:00.583Z,99.90
2019-05-25T05:11:33.405Z,99.90
2019-05-25T05:14:03.271Z,99.90
2019-05-25T05:16:33.482Z,99.90
2019-05-25T05:19:03.713Z,99.90
2019-05-25T05:21:33.324Z,99.90
2019-05-25T05:24:03.102Z,99.90
2019-05-25T05:26:33.736Z,99.90
2019-05-25T05:29:03.496Z,99.90
2019-05-25T05:31:33.271Z,99.90
2019-05-25T05:34:03.297Z,99.90
2019-05-25T05:36:33.869Z,99.90
2019-05-25T05:39:06.314Z,91.50
2019-05-25T05:41:40.665Z,78.70
2019-05-25T05:44:11.626Z,64.60
2019-05-25T05:46:41.805Z,58.20
2019-05-25T05:49:12.506Z,56.20
2019-05-25T05:51:43.885Z,57.20
2019-05-25T05:54:15.321Z,57.80
2019-05-25T05:56:47.719Z,59.60
2019-05-25T05:59:17.826Z,62.70
2019-05-25T06:01:47.553Z,67.10
2019-05-25T06:04:19.998Z,73.00
2019-05-25T06:06:49.607Z,77.60
2019-05-25T06:09:19.325Z,81.10
2019-05-25T06:11:48.995Z,81.00
2019-05-25T06:14:18.895Z,75.60
2019-05-25T06:16:48.854Z,60.40
2019-05-25T06:19:18.622Z,57.30
2019-05-25T06:21:48.306Z,56.70
2019-05-25T06:24:18.033Z,53.70
2019-05-25T06:26:47.849Z,49.40
2019-05-25T06:29:17.852Z,47.20
2019-05-25T06:31:47.661Z,45.30
2019-05-25T06:34:17.448Z,41.50
2019-05-25T06:36:47.038Z,42.00
2019-05-25T06:39:16.735Z,40.80
2019-05-25T06:41:46.259Z,40.50
2019-05-25T06:44:16.044Z,41.10
2019-05-25T06:46:46.382Z,41.60
2019-05-25T06:49:17.156Z,42.30
2019-05-25T06:51:47.232Z,43.30
2019-05-25T06:54:17.325Z,43.80
2019-05-25T06:56:47.209Z,45.20
2019-05-25T06:59:16.723Z,47.30
2019-05-25T07:01:47.329Z,49.00
2019-05-25T07:04:17.243Z,50.40
2019-05-25T07:06:46.807Z,50.60
2019-05-25T07:09:16.722Z,51.60
2019-05-25T07:11:46.096Z,52.20
2019-05-25T07:14:16.109Z,51.80
2019-05-25T07:16:45.957Z,51.60
2019-05-25T07:19:15.513Z,51.30
2019-05-25T07:21:45.207Z,48.70
2019-05-25T07:24:15.192Z,47.50
2019-05-25T07:26:44.893Z,47.60
2019-05-25T07:29:14.795Z,47.50
2019-05-25T07:31:44.920Z,48.70
2019-05-25T07:34:14.526Z,50.80
2019-05-25T07:36:43.900Z,51.80
2019-05-25T07:39:13.403Z,53.50
2019-05-25T07:41:43.458Z,55.10
2019-05-25T07:44:12.998Z,56.60
2019-05-25T07:46:42.992Z,55.60
2019-05-25T07:49:12.443Z,55.20
2019-05-25T07:51:42.125Z,53.70
2019-05-25T07:54:12.012Z,53.10
2019-05-25T07:56:41.599Z,50.80
2019-05-25T07:59:11.607Z,48.50
2019-05-25T08:01:41.271Z,46.60
2019-05-25T08:04:11.501Z,47.20
2019-05-25T08:06:41.218Z,47.40
2019-05-25T08:09:11.151Z,47.80
2019-05-25T08:11:40.713Z,48.30
2019-05-25T08:14:10.301Z,49.90
2019-05-25T08:16:40.282Z,51.10
2019-05-25T08:19:10.079Z,52.70
2019-05-25T08:21:42.564Z,54.20
2019-05-25T08:24:12.270Z,55.50
2019-05-25T08:26:41.652Z,54.70
2019-05-25T08:29:11.491Z,54.30
2019-05-25T08:31:41.270Z,53.40
2019-05-25T08:34:10.978Z,50.60
2019-05-25T08:36:40.847Z,48.10
2019-05-25T08:39:11.006Z,46.10
2019-05-25T08:41:41.070Z,45.70
2019-05-25T08:44:11.042Z,44.10
2019-05-25T08:46:40.931Z,41.10
2019-05-25T08:49:12.143Z,39.70
2019-05-25T08:51:42.123Z,38.80
2019-05-25T08:54:11.657Z,37.90
2019-05-25T08:56:41.971Z,38.40
2019-05-25T08:59:12.485Z,39.40
2019-05-25T09:01:42.565Z,40.50
2019-05-25T09:04:12.343Z,40.80
2019-05-25T09:06:42.784Z,40.20
2019-05-25T09:09:12.812Z,40.50
2019-05-25T09:11:45.556Z,41.00
2019-05-25T09:14:15.966Z,41.40
2019-05-25T09:16:45.894Z,42.40
2019-05-25T09:19:15.835Z,43.40
2019-05-25T09:22:01.401Z,42.70
2019-05-25T09:24:18.530Z,42.50
2019-05-25T09:26:48.334Z,41.10
2019-05-25T09:29:18.143Z,39.10
2019-05-25T09:31:48.015Z,37.20
2019-05-25T09:34:17.650Z,35.20
2019-05-25T09:36:47.770Z,35.40
2019-05-25T09:39:17.777Z,34.80
2019-05-25T09:41:47.433Z,35.20
2019-05-25T09:44:17.432Z,35.50
2019-05-25T09:46:48.823Z,37.10
2019-05-25T09:49:18.623Z,37.00
2019-05-25T09:51:48.787Z,37.50
2019-05-25T09:54:18.623Z,38.10
2019-05-25T09:56:50.054Z,38.80
2019-05-25T09:59:20.671Z,37.50
2019-05-25T10:01:50.217Z,35.00
2019-05-25T10:04:21.696Z,33.30
2019-05-25T10:06:51.116Z,34.10
2019-05-25T10:09:21.156Z,33.80
2019-05-25T10:11:50.723Z,34.10
2019-05-25T10:14:20.188Z,35.00
2019-05-25T10:16:49.588Z,34.70
2019-05-25T10:19:18.985Z,34.20
2019-05-25T10:21:48.524Z,31.90
2019-05-25T10:24:18.788Z,30.00
2019-05-25T10:26:48.472Z,29.00
2019-05-25T10:29:18.354Z,28.20
2019-05-25T10:31:48.328Z,27.70
2019-05-25T10:34:17.984Z,27.40
2019-05-25T10:36:48.007Z,27.60
2019-05-25T10:39:17.625Z,27.90
2019-05-25T10:41:47.206Z,27.40
2019-05-25T10:44:17.451Z,27.80
2019-05-25T10:46:47.096Z,27.80
2019-05-25T10:49:17.142Z,27.80
2019-05-25T10:51:47.259Z,28.00
2019-05-25T10:54:16.933Z,27.80
2019-05-25T10:56:47.390Z,28.20
2019-05-25T10:59:17.532Z,28.90
2019-05-25T11:01:47.485Z,30.70
2019-05-25T11:04:16.928Z,31.80
2019-05-25T11:06:46.663Z,33.10
2019-05-25T11:51:41.219Z,36.30
2019-05-25T11:54:10.566Z,38.90
2019-05-25T11:56:39.957Z,38.60
2019-05-25T11:59:09.366Z,38.40
2019-05-25T12:01:38.764Z,38.20
2019-05-25T12:04:08.241Z,36.80
2019-05-25T12:06:37.670Z,36.70
2019-05-25T12:09:08.371Z,35.40
2019-05-25T12:11:37.745Z,35.20
2019-05-25T12:14:07.352Z,36.90
2019-05-25T12:16:36.656Z,37.50
2019-05-25T12:19:06.072Z,38.80
2019-05-25T12:21:35.481Z,40.70
2019-05-25T12:24:04.956Z,41.20
2019-05-25T12:26:34.303Z,42.00
2019-05-25T12:29:03.758Z,42.30
2019-05-25T12:31:33.166Z,41.90
2019-05-25T12:34:04.323Z,40.90
2019-05-25T12:36:33.940Z,41.20
2019-05-25T12:39:03.643Z,41.20
2019-05-25T12:41:33.140Z,41.90
2019-05-25T12:44:02.660Z,42.00
2019-05-25T12:46:32.025Z,40.50
2019-05-25T12:49:03.148Z,39.70
2019-05-25T12:51:32.680Z,39.80
2019-05-25T12:54:02.011Z,40.50
2019-05-25T12:56:31.443Z,40.20
2019-05-25T12:59:01.947Z,40.70
2019-05-25T13:01:31.340Z,40.20
2019-05-25T13:04:00.700Z,39.70
2019-05-25T13:06:30.064Z,40.10
2019-05-25T13:08:59.353Z,39.80
2019-05-25T13:11:28.715Z,40.30
2019-05-25T13:14:06.321Z,40.90
2019-05-25T13:16:29.155Z,39.80
2019-05-25T13:18:58.460Z,40.10
2019-05-25T13:21:27.903Z,40.40
2019-05-25T13:23:57.321Z,40.10
2019-05-25T13:26:26.818Z,39.40
2019-05-25T13:28:56.421Z,39.60
2019-05-25T13:31:25.734Z,39.40
2019-05-25T13:33:55.115Z,39.60
2019-05-25T13:36:24.451Z,39.60
2019-05-25T13:38:53.798Z,39.30
2019-05-25T13:41:23.323Z,39.10
2019-05-25T13:43:52.745Z,39.20
2019-05-25T13:46:23.189Z,39.00
2019-05-25T13:48:52.590Z,38.60
2019-05-25T13:51:21.908Z,39.00
2019-05-25T13:53:51.316Z,39.00
2019-05-25T13:56:20.701Z,39.10
2019-05-25T13:58:50.120Z,39.70
2019-05-25T14:01:28.047Z,39.90
2019-05-25T14:03:50.478Z,40.20
2019-05-25T14:06:19.821Z,39.70
2019-05-25T14:08:49.138Z,39.40
2019-05-25T14:11:18.726Z,39.50
2019-05-25T14:13:48.140Z,39.60
2019-05-25T14:16:17.860Z,39.90
2019-05-25T14:18:47.201Z,40.10
2019-05-25T14:21:16.557Z,40.80
2019-05-25T14:23:46.047Z,42.10
2019-05-25T14:26:15.365Z,40.60
2019-05-25T14:28:44.958Z,40.60
2019-05-25T14:31:14.333Z,41.40
2019-05-25T14:33:43.765Z,41.90
2019-05-25T14:36:13.143Z,41.80
2019-05-25T14:38:42.580Z,41.70
2019-05-25T14:41:14.847Z,41.80
2019-05-25T14:43:44.220Z,41.40
2019-05-25T14:46:26.955Z,41.60
2019-05-25T14:48:44.734Z,41.40
2019-05-25T14:51:14.090Z,41.90
2019-05-25T14:53:43.486Z,42.40
2019-05-25T14:56:12.870Z,42.70
2019-05-25T14:58:42.278Z,41.80
2019-05-25T15:01:12.236Z,41.90
2019-05-25T15:03:41.638Z,41.50
2019-05-25T15:06:11.032Z,41.30
2019-05-25T15:08:40.523Z,41.20
2019-05-25T15:11:10.930Z,41.40
2019-05-25T15:13:40.808Z,42.30
2019-05-25T15:16:10.300Z,40.40
2019-05-25T15:18:39.693Z,40.30
2019-05-25T15:21:09.092Z,41.10
2019-05-25T15:23:38.516Z,41.30
2019-05-25T15:26:07.816Z,40.90
2019-05-25T15:28:37.156Z,41.10
2019-05-25T15:31:06.532Z,40.20
2019-05-25T15:33:36.605Z,40.50
2019-05-25T15:36:06.101Z,40.50
2019-05-25T15:38:35.493Z,40.30
2019-05-25T15:41:04.943Z,40.40
2019-05-25T15:43:34.473Z,40.70
2019-05-25T15:46:04.063Z,41.30
2019-05-25T15:48:33.351Z,41.30
2019-05-25T15:51:02.716Z,41.50
2019-05-25T15:53:32.078Z,41.30
2019-05-25T15:56:01.414Z,42.10
2019-05-25T15:58:32.184Z,42.30
2019-05-25T16:01:01.606Z,42.20
2019-05-25T16:03:31.319Z,41.90
2019-05-25T16:06:00.907Z,42.50
2019-05-25T16:08:30.284Z,43.50
2019-05-25T16:10:59.579Z,43.00
2019-05-25T16:13:29.007Z,43.00
2019-05-25T16:15:58.320Z,43.60
2019-05-25T16:18:27.679Z,43.40
2019-05-25T16:20:57.001Z,43.60
2019-05-25T16:23:26.376Z,44.00
2019-05-25T16:25:55.750Z,44.00
2019-05-25T16:28:25.080Z,44.10
2019-05-25T16:30:54.593Z,44.30
2019-05-25T16:33:24.292Z,44.50
2019-05-25T16:35:57.755Z,44.00
2019-05-25T16:38:24.792Z,44.10
2019-05-25T16:40:54.428Z,44.40
2019-05-25T16:43:23.766Z,43.90
2019-05-25T16:45:53.185Z,44.50
2019-05-25T16:48:22.649Z,44.60
2019-05-25T16:50:52.014Z,44.90
2019-05-25T16:53:21.380Z,44.70
2019-05-25T16:55:54.439Z,43.90
2019-05-25T16:58:22.146Z,44.20
2019-05-25T17:00:51.608Z,44.60
2019-05-25T17:03:28.175Z,44.90
2019-05-25T17:05:52.296Z,45.00
2019-05-25T17:08:21.769Z,45.10
2019-05-25T17:10:51.113Z,44.60
2019-05-25T17:13:20.533Z,44.80
2019-05-25T17:15:50.053Z,44.40
2019-05-25T17:18:19.517Z,44.50
2019-05-25T17:20:48.830Z,44.70
2019-05-25T17:23:18.159Z,44.60
2019-05-25T17:25:47.541Z,44.10
2019-05-25T17:28:16.843Z,43.70
2019-05-25T17:30:46.742Z,44.70
2019-05-25T17:33:16.276Z,45.70
2019-05-25T17:35:45.821Z,45.50
2019-05-25T17:38:16.400Z,45.80
2019-05-25T17:40:45.767Z,45.80
2019-05-25T17:43:15.159Z,45.60
2019-05-25T17:45:45.721Z,45.80
2019-05-25T17:48:15.151Z,46.10
2019-05-25T17:50:44.598Z,46.60
2019-05-25T17:53:14.028Z,46.40
2019-05-25T17:55:43.390Z,46.80
2019-05-25T17:58:12.773Z,47.20
2019-05-25T18:00:44.807Z,47.50
2019-05-25T18:03:14.268Z,47.50
2019-05-25T18:05:43.652Z,47.50
2019-05-25T18:08:13.072Z,47.10
2019-05-25T18:10:52.779Z,46.90
2019-05-25T18:13:13.573Z,46.80
2019-05-25T18:15:43.058Z,46.90
2019-05-25T18:18:13.224Z,46.70
2019-05-25T18:20:42.908Z,47.00
2019-05-25T18:23:12.345Z,47.00
2019-05-25T18:25:41.766Z,46.70
2019-05-25T18:28:11.152Z,46.90
2019-05-25T18:30:40.478Z,47.00
2019-05-25T18:33:09.790Z,46.70
2019-05-25T18:35:39.180Z,46.70
2019-05-25T18:38:08.513Z,46.40
2019-05-25T18:40:37.859Z,46.50
2019-05-25T18:43:07.183Z,46.90
2019-05-25T18:45:36.634Z,46.90
2019-05-25T18:48:06.099Z,47.10
2019-05-25T18:50:35.555Z,47.10
2019-05-25T18:53:05.397Z,47.80
2019-05-25T18:55:36.096Z,47.90
2019-05-25T18:58:05.441Z,47.90
2019-05-25T19:00:34.942Z,48.20
2019-05-25T19:03:04.549Z,48.60
2019-05-25T19:05:34.021Z,49.20
2019-05-25T19:08:04.743Z,49.50
2019-05-25T19:10:34.093Z,49.50
2019-05-25T19:13:03.559Z,50.20
2019-05-25T19:15:33.075Z,50.20
2019-05-25T19:18:02.476Z,50.40
2019-05-25T19:20:31.915Z,50.60
2019-05-25T19:23:01.318Z,51.10
2019-05-25T19:25:30.740Z,51.20
2019-05-25T19:28:00.208Z,51.40
2019-05-25T19:30:29.826Z,51.80
2019-05-25T19:32:59.270Z,52.20
2019-05-25T19:35:28.751Z,52.50
2019-05-25T19:37:58.132Z,52.70
2019-05-25T19:40:27.479Z,52.80
2019-05-25T19:42:56.854Z,52.80
2019-05-25T19:45:27.311Z,53.20
2019-05-25T19:47:56.701Z,53.80
2019-05-25T19:50:26.176Z,53.80
2019-05-25T19:52:55.549Z,54.10
2019-05-25T19:55:24.939Z,54.50
2019-05-25T19:57:54.341Z,55.00
2019-05-25T20:00:23.910Z,55.70
2019-05-25T20:02:53.312Z,56.30
2019-05-25T20:05:22.707Z,57.20
2019-05-25T20:07:55.158Z,57.90
2019-05-25T20:10:24.595Z,58.80
2019-05-25T20:12:53.966Z,60.20
2019-05-25T20:15:23.388Z,61.70
2019-05-25T20:17:52.960Z,63.90
2019-05-25T20:20:22.492Z,67.30
2019-05-25T20:22:51.916Z,70.20
2019-05-25T20:25:21.289Z,74.20
2019-05-25T20:27:50.762Z,77.90
2019-05-25T20:30:20.392Z,86.10
2019-05-25T20:32:49.776Z,90.30
2019-05-25T20:35:32.503Z,91.30
2019-05-25T20:37:51.729Z,93.20
2019-05-25T20:40:21.132Z,95.00
2019-05-25T20:42:50.463Z,96.80
2019-05-25T20:45:19.844Z,98.10
2019-05-25T20:47:49.199Z,99.90
2019-05-25T20:50:18.724Z,99.90
2019-05-25T20:52:48.079Z,99.90
2019-05-25T20:55:17.455Z,99.90
2019-05-25T20:57:46.847Z,99.90
2019-05-25T21:00:16.318Z,99.90
2019-05-25T21:02:45.631Z,99.90
2019-05-25T21:05:15.113Z,99.90
2019-05-25T21:07:44.512Z,99.90
2019-05-25T21:10:14.275Z,99.90
2019-05-25T21:12:43.618Z,99.90
2019-05-25T21:15:15.064Z,99.90
2019-05-25T21:17:44.435Z,99.90
2019-05-25T21:20:14.714Z,99.90
2019-05-25T21:22:44.161Z,99.90
2019-05-25T21:25:13.573Z,99.90
2019-05-25T21:27:44.763Z,99.90
2019-05-25T21:30:14.666Z,99.90
2019-05-25T21:32:44.051Z,99.90
2019-05-25T21:35:13.457Z,99.90
2019-05-25T21:37:42.975Z,99.90
2019-05-25T21:40:12.468Z,99.90
2019-05-25T21:42:41.892Z,99.90
2019-05-25T21:45:11.607Z,99.90
2019-05-25T21:47:40.992Z,99.90
2019-05-25T21:50:10.714Z,99.90
2019-05-25T21:52:40.058Z,99.90
2019-05-25T21:55:09.806Z,99.90
2019-05-25T21:57:39.174Z,99.90
2019-05-25T22:00:10.978Z,99.90
2019-05-25T22:02:40.372Z,99.90
2019-05-25T22:05:10.181Z,99.90
2019-05-25T22:07:39.528Z,99.90
2019-05-25T22:10:09.113Z,99.90
2019-05-25T22:12:40.256Z,99.90
2019-05-25T22:15:10.632Z,99.90
2019-05-25T22:17:40.698Z,99.90
2019-05-25T22:20:11.629Z,99.90
2019-05-25T22:22:41.055Z,99.90
2019-05-25T22:25:10.835Z,99.90
2019-05-25T22:27:40.228Z,99.90
2019-05-25T22:30:09.764Z,99.90
2019-05-25T22:32:39.135Z,99.90
2019-05-25T22:35:08.668Z,99.90
2019-05-25T22:37:38.023Z,99.90
2019-05-25T22:40:07.818Z,99.90
2019-05-25T22:42:37.242Z,99.90
2019-05-25T22:45:06.672Z,99.90
2019-05-25T22:47:36.113Z,99.90
2019-05-25T22:50:05.731Z,99.90
2019-05-25T22:52:35.171Z,99.90
2019-05-25T22:55:04.731Z,99.90
2019-05-25T22:57:34.061Z,99.90
2019-05-25T23:00:03.672Z,99.90
2019-05-25T23:02:33.204Z,99.90
2019-05-25T23:05:02.548Z,99.90
2019-05-25T23:07:31.951Z,99.90
2019-05-25T23:10:01.331Z,99.90
2019-05-25T23:12:30.687Z,99.90
2019-05-25T23:15:00.162Z,99.90
2019-05-25T23:17:29.534Z,99.90
2019-05-25T23:19:58.932Z,99.90
2019-05-25T23:22:29.750Z,99.90
2019-05-25T23:24:59.179Z,99.90
2019-05-25T23:27:28.590Z,99.90
2019-05-25T23:29:57.977Z,99.90
2019-05-25T23:32:27.388Z,99.90
2019-05-25T23:34:56.824Z,99.90
2019-05-25T23:37:26.195Z,99.90
2019-05-25T23:39:56.699Z,99.90
2019-05-25T23:42:26.086Z,99.90
2019-05-25T23:44:55.480Z,99.90
2019-05-25T23:47:24.927Z,99.90
2019-05-25T23:49:54.346Z,99.90
2019-05-25T23:52:23.866Z,99.90
2019-05-25T23:54:53.216Z,99.90
2019-05-25T23:57:23.871Z,99.90
2019-05-25T23:59:53.468Z,99.90
